createdAt,value
2019-05-29T00:00:58.943Z,1.40
2019-05-29T00:04:03.285Z,1.23
2019-05-29T00:07:08.024Z,1.23
2019-05-29T00:10:12.880Z,1.37
2019-05-29T00:13:17.221Z,1.50
2019-05-29T00:16:21.555Z,1.23
2019-05-29T00:19:25.968Z,1.60
2019-05-29T00:22:30.352Z,1.53
2019-05-29T00:25:34.732Z,1.80
2019-05-29T00:28:39.057Z,1.40
2019-05-29T00:31:43.375Z,1.30
2019-05-29T00:34:47.752Z,1.40
2019-05-29T00:37:52.093Z,1.33
2019-05-29T00:40:56.505Z,1.40
2019-05-29T00:44:00.835Z,1.40
2019-05-29T00:47:05.182Z,1.47
2019-05-29T00:50:12.283Z,1.30
2019-05-29T00:53:16.975Z,1.30
2019-05-29T00:56:21.390Z,1.50
2019-05-29T00:59:26.149Z,1.20
2019-05-29T01:02:30.509Z,1.73
2019-05-29T01:05:34.929Z,1.47
2019-05-29T01:08:39.242Z,1.80
2019-05-29T01:11:43.538Z,1.60
2019-05-29T01:14:50.402Z,1.70
2019-05-29T01:17:55.088Z,1.43
2019-05-29T01:20:59.504Z,1.53
2019-05-29T01:24:03.897Z,1.57
2019-05-29T01:27:08.208Z,1.53
2019-05-29T01:30:13.228Z,1.30
2019-05-29T01:33:20.498Z,1.60
2019-05-29T01:36:25.379Z,1.90
2019-05-29T01:39:29.868Z,1.37
2019-05-29T01:42:34.200Z,1.60
2019-05-29T01:45:38.515Z,1.70
2019-05-29T01:48:42.825Z,1.37
2019-05-29T01:51:48.694Z,1.87
2019-05-29T01:54:53.036Z,1.57
2019-05-29T01:57:57.406Z,1.40
2019-05-29T02:01:01.661Z,1.37
2019-05-29T02:04:05.969Z,1.30
2019-05-29T02:07:10.272Z,1.20
2019-05-29T02:10:15.988Z,1.50
2019-05-29T02:13:21.390Z,1.50
2019-05-29T02:16:26.866Z,1.77
2019-05-29T02:19:31.256Z,1.73
2019-05-29T02:22:35.560Z,1.50
2019-05-29T02:25:39.851Z,1.77
2019-05-29T02:28:44.143Z,2.07
2019-05-29T02:31:48.426Z,1.70
2019-05-29T02:34:52.708Z,1.43
2019-05-29T02:37:56.970Z,1.77
2019-05-29T02:41:01.241Z,1.77
2019-05-29T02:44:05.842Z,1.40
2019-05-29T02:47:11.636Z,1.60
2019-05-29T02:50:16.035Z,1.70
2019-05-29T02:53:20.322Z,1.50
2019-05-29T02:56:24.927Z,1.60
2019-05-29T02:59:30.179Z,1.90
2019-05-29T03:02:35.386Z,1.40
2019-05-29T03:05:39.670Z,1.60
2019-05-29T03:08:43.943Z,1.60
2019-05-29T03:11:48.246Z,1.30
2019-05-29T03:14:52.503Z,1.90
2019-05-29T03:17:56.789Z,1.40
2019-05-29T03:21:01.079Z,1.73
2019-05-29T03:24:05.569Z,1.60
2019-05-29T03:27:09.858Z,1.40
2019-05-29T03:30:14.351Z,1.43
2019-05-29T03:33:18.705Z,1.40
2019-05-29T03:36:23.111Z,1.63
2019-05-29T03:39:28.112Z,1.70
2019-05-29T03:42:32.706Z,1.23
2019-05-29T03:45:37.981Z,1.60
2019-05-29T03:48:42.464Z,1.30
2019-05-29T03:51:46.749Z,1.60
2019-05-29T03:54:54.068Z,1.33
2019-05-29T03:57:58.305Z,1.50
2019-05-29T04:01:02.760Z,1.47
2019-05-29T04:04:07.112Z,1.60
2019-05-29T04:07:11.397Z,1.40
2019-05-29T04:10:18.646Z,1.50
2019-05-29T04:13:23.534Z,1.20
2019-05-29T04:16:29.462Z,1.73
2019-05-29T04:19:36.373Z,1.50
2019-05-29T04:22:45.174Z,1.43
2019-05-29T04:25:51.816Z,1.20
2019-05-29T04:28:56.101Z,1.00
2019-05-29T04:32:00.392Z,1.30
2019-05-29T04:35:04.683Z,1.17
2019-05-29T04:38:08.959Z,1.20
2019-05-29T04:41:13.250Z,0.90
2019-05-29T04:44:17.505Z,1.13
2019-05-29T04:47:21.781Z,1.83
2019-05-29T04:50:26.052Z,0.97
2019-05-29T04:53:33.253Z,1.10
2019-05-29T04:56:37.612Z,1.13
2019-05-29T04:59:41.868Z,1.30
2019-05-29T05:02:46.193Z,1.30
2019-05-29T05:05:50.511Z,0.93
2019-05-29T05:08:54.791Z,1.63
2019-05-29T05:11:59.476Z,1.20
2019-05-29T05:15:03.815Z,1.20
2019-05-29T05:18:08.492Z,1.03
2019-05-29T05:21:12.832Z,1.20
2019-05-29T05:24:19.240Z,1.30
2019-05-29T05:27:26.647Z,1.00
2019-05-29T05:30:32.017Z,1.37
2019-05-29T05:33:36.828Z,1.43
2019-05-29T05:36:41.168Z,1.00
2019-05-29T05:39:45.472Z,0.90
2019-05-29T05:42:50.889Z,1.20
2019-05-29T05:45:55.247Z,0.87
2019-05-29T05:48:59.753Z,1.10
2019-05-29T05:52:04.034Z,1.20
2019-05-29T05:55:08.862Z,0.93
2019-05-29T05:58:16.750Z,1.70
2019-05-29T06:01:21.519Z,0.90
2019-05-29T06:04:25.820Z,0.97
2019-05-29T06:07:30.187Z,1.17
2019-05-29T06:10:34.709Z,1.20
2019-05-29T06:13:39.114Z,1.23
2019-05-29T06:16:44.501Z,1.20
2019-05-29T06:19:48.864Z,1.17
2019-05-29T06:22:55.037Z,0.90
2019-05-29T06:26:00.181Z,0.80
2019-05-29T06:29:04.923Z,1.00
2019-05-29T06:32:09.253Z,1.03
2019-05-29T06:35:15.661Z,1.37
2019-05-29T06:38:20.070Z,1.00
2019-05-29T06:41:24.375Z,1.10
2019-05-29T06:44:28.658Z,1.00
2019-05-29T06:47:34.242Z,1.00
2019-05-29T06:50:39.435Z,1.03
2019-05-29T06:53:44.192Z,0.80
2019-05-29T06:56:48.782Z,0.90
2019-05-29T06:59:53.076Z,0.97
2019-05-29T07:02:57.397Z,0.73
2019-05-29T07:06:01.719Z,1.10
2019-05-29T07:09:07.299Z,0.80
2019-05-29T07:12:12.621Z,1.00
2019-05-29T07:15:17.447Z,1.10
2019-05-29T07:18:21.750Z,1.10
2019-05-29T07:21:26.106Z,1.20
2019-05-29T07:24:30.486Z,1.23
2019-05-29T07:27:34.836Z,1.10
2019-05-29T07:30:39.335Z,1.50
2019-05-29T07:33:43.607Z,0.80
2019-05-29T07:36:48.666Z,1.50
2019-05-29T07:39:52.962Z,0.70
2019-05-29T07:42:57.441Z,1.07
2019-05-29T07:46:01.695Z,1.03
2019-05-29T07:49:06.024Z,1.47
2019-05-29T07:52:10.387Z,1.03
2019-05-29T07:55:14.845Z,0.90
2019-05-29T07:58:19.173Z,0.80
2019-05-29T08:01:23.501Z,0.80
2019-05-29T08:04:29.665Z,0.93
2019-05-29T08:07:33.940Z,0.80
2019-05-29T08:10:40.156Z,0.97
2019-05-29T08:13:45.869Z,0.77
2019-05-29T08:16:56.929Z,1.00
2019-05-29T08:20:06.950Z,1.10
2019-05-29T08:23:07.613Z,0.93
2019-05-29T08:26:11.601Z,1.20
2019-05-29T08:29:16.147Z,0.80
2019-05-29T08:32:20.563Z,0.90
2019-05-29T08:35:25.983Z,0.90
2019-05-29T08:38:30.420Z,1.00
2019-05-29T08:41:34.691Z,0.70
2019-05-29T08:44:39.197Z,0.90
2019-05-29T08:47:43.580Z,1.30
2019-05-29T08:50:47.893Z,1.10
2019-05-29T08:53:54.762Z,1.10
2019-05-29T08:56:59.197Z,0.90
2019-05-29T09:00:03.602Z,0.87
2019-05-29T09:03:07.959Z,0.83
2019-05-29T09:06:13.718Z,1.00
2019-05-29T09:09:18.302Z,1.67
2019-05-29T09:12:22.669Z,1.20
2019-05-29T09:15:27.978Z,0.83
2019-05-29T09:18:32.411Z,0.87
2019-05-29T09:21:36.986Z,0.93
2019-05-29T09:24:41.471Z,1.00
2019-05-29T09:27:45.856Z,0.80
2019-05-29T09:30:53.122Z,0.87
2019-05-29T09:33:58.524Z,1.00
2019-05-29T09:37:02.969Z,0.80
2019-05-29T09:40:17.051Z,1.17
2019-05-29T09:43:26.998Z,0.90
2019-05-29T09:46:28.650Z,0.90
2019-05-29T09:49:32.936Z,1.10
2019-05-29T09:52:37.483Z,1.30
2019-05-29T09:55:42.566Z,1.10
2019-05-29T09:58:47.036Z,1.20
2019-05-29T10:01:55.883Z,0.87
2019-05-29T10:05:00.706Z,0.90
2019-05-29T10:08:05.416Z,1.50
2019-05-29T10:11:10.887Z,0.87
2019-05-29T10:14:15.878Z,1.00
2019-05-29T10:17:20.259Z,0.90
2019-05-29T10:20:24.591Z,0.83
2019-05-29T10:23:30.591Z,0.90
2019-05-29T10:26:36.408Z,0.93
2019-05-29T10:29:40.686Z,0.90
2019-05-29T10:32:46.277Z,0.90
2019-05-29T10:35:53.349Z,1.20
2019-05-29T10:38:56.671Z,1.03
2019-05-29T10:42:01.301Z,1.07
2019-05-29T10:45:06.741Z,1.10
2019-05-29T10:48:11.097Z,1.00
2019-05-29T10:51:15.449Z,0.70
2019-05-29T10:54:19.775Z,1.10
2019-05-29T10:57:24.086Z,0.90
2019-05-29T11:00:28.379Z,0.80
2019-05-29T11:03:32.699Z,0.97
2019-05-29T11:06:40.534Z,0.80
2019-05-29T11:09:44.809Z,0.60
2019-05-29T11:12:50.448Z,0.93
2019-05-29T11:15:54.962Z,0.73
2019-05-29T11:18:59.365Z,0.93
2019-05-29T11:22:24.717Z,1.20
2019-05-29T11:25:22.446Z,1.00
2019-05-29T11:28:16.196Z,0.80
2019-05-29T11:31:23.168Z,1.10
2019-05-29T11:34:28.947Z,1.07
2019-05-29T11:37:33.219Z,0.70
2019-05-29T11:40:38.085Z,0.97
2019-05-29T11:43:42.659Z,0.73
2019-05-29T11:46:46.994Z,0.90
2019-05-29T11:49:51.231Z,0.80
2019-05-29T11:52:56.436Z,0.80
2019-05-29T11:56:02.041Z,1.10
2019-05-29T11:59:06.618Z,1.07
2019-05-29T12:02:10.945Z,0.90
2019-05-29T12:05:15.934Z,0.77
2019-05-29T12:08:20.221Z,0.73
2019-05-29T12:11:24.611Z,1.00
2019-05-29T12:14:29.018Z,0.70
2019-05-29T12:17:33.512Z,1.17
2019-05-29T12:20:37.979Z,0.90
2019-05-29T12:23:42.284Z,0.80
2019-05-29T12:26:46.579Z,0.70
2019-05-29T12:29:50.866Z,1.00
2019-05-29T12:32:55.140Z,1.00
2019-05-29T12:35:59.452Z,0.90
2019-05-29T12:39:04.381Z,1.00
2019-05-29T12:42:08.674Z,1.33
2019-05-29T12:45:14.410Z,1.07
2019-05-29T12:48:18.690Z,0.80
2019-05-29T12:51:23.035Z,0.80
2019-05-29T12:54:28.659Z,1.07
2019-05-29T12:57:33.070Z,0.80
2019-05-29T13:00:38.516Z,0.80
2019-05-29T13:03:45.507Z,0.90
2019-05-29T13:06:48.846Z,1.33
2019-05-29T13:09:54.295Z,0.73
2019-05-29T13:13:04.378Z,0.90
2019-05-29T13:16:05.197Z,0.90
2019-05-29T13:19:09.765Z,1.03
2019-05-29T13:22:14.075Z,0.60
2019-05-29T13:25:19.323Z,0.90
2019-05-29T13:28:23.619Z,0.90
2019-05-29T13:31:27.932Z,0.90
2019-05-29T13:34:32.360Z,0.90
2019-05-29T13:37:36.857Z,0.97
2019-05-29T13:40:41.204Z,0.80
2019-05-29T13:43:45.653Z,1.10
2019-05-29T13:46:50.040Z,1.10
2019-05-29T13:49:54.509Z,0.90
2019-05-29T13:52:59.407Z,1.13
2019-05-29T13:56:04.235Z,0.90
2019-05-29T13:59:08.766Z,0.80
2019-05-29T14:02:13.151Z,0.80
2019-05-29T14:05:18.114Z,0.80
2019-05-29T14:08:22.436Z,0.77
2019-05-29T14:11:26.820Z,0.97
2019-05-29T14:14:31.109Z,1.10
2019-05-29T14:17:35.409Z,0.90
2019-05-29T14:20:39.743Z,1.00
2019-05-29T14:23:44.069Z,1.00
2019-05-29T14:26:49.361Z,0.87
2019-05-29T14:29:53.688Z,1.00
2019-05-29T14:32:58.119Z,0.90
2019-05-29T14:36:03.451Z,0.90
2019-05-29T14:39:09.974Z,1.20
2019-05-29T14:42:14.802Z,1.00
2019-05-29T14:45:19.683Z,1.20
2019-05-29T14:48:24.561Z,1.20
2019-05-29T14:51:29.454Z,0.90
2019-05-29T14:54:41.975Z,1.20
2019-05-29T14:57:40.253Z,1.27
2019-05-29T15:00:44.618Z,1.00
2019-05-29T15:03:48.891Z,1.00
2019-05-29T15:06:53.324Z,0.83
2019-05-29T15:09:57.675Z,1.10
2019-05-29T15:13:01.982Z,0.70
2019-05-29T15:16:06.681Z,1.00
2019-05-29T15:19:11.117Z,1.00
2019-05-29T15:22:16.022Z,0.97
2019-05-29T15:25:24.204Z,1.00
2019-05-29T15:28:26.656Z,1.00
2019-05-29T15:31:31.004Z,1.00
2019-05-29T15:34:35.275Z,0.93
2019-05-29T15:37:39.629Z,0.70
2019-05-29T15:40:43.894Z,0.73
2019-05-29T15:43:49.430Z,1.00
2019-05-29T15:46:53.863Z,0.77
2019-05-29T15:49:58.148Z,0.90
2019-05-29T15:53:02.430Z,0.90
2019-05-29T15:56:20.137Z,0.80
2019-05-29T15:59:14.418Z,0.80
2019-05-29T16:02:18.799Z,0.80
2019-05-29T16:05:23.090Z,1.00
2019-05-29T16:08:27.386Z,0.70
2019-05-29T16:11:31.691Z,0.90
2019-05-29T16:14:35.993Z,0.90
2019-05-29T16:17:40.385Z,0.80
2019-05-29T16:20:44.650Z,1.17
2019-05-29T16:23:48.963Z,1.00
2019-05-29T16:27:07.783Z,1.10
2019-05-29T16:29:59.272Z,0.90
2019-05-29T16:33:03.665Z,0.90
2019-05-29T16:36:07.977Z,0.97
2019-05-29T16:39:13.456Z,0.80
2019-05-29T16:42:18.132Z,1.17
2019-05-29T16:45:22.671Z,0.90
2019-05-29T16:48:26.968Z,0.80
2019-05-29T16:51:31.265Z,0.70
2019-05-29T16:54:35.577Z,0.80
2019-05-29T16:57:39.852Z,0.90
2019-05-29T17:00:44.126Z,0.80
2019-05-29T17:03:48.521Z,0.63
2019-05-29T17:06:53.101Z,0.70
2019-05-29T17:09:57.463Z,0.80
2019-05-29T17:13:01.899Z,0.70
2019-05-29T17:16:06.184Z,1.13
2019-05-29T17:19:10.493Z,0.80
2019-05-29T17:22:16.484Z,1.00
2019-05-29T17:25:24.628Z,0.70
2019-05-29T17:28:28.393Z,0.90
2019-05-29T17:31:32.976Z,0.80
2019-05-29T17:34:37.320Z,0.77
2019-05-29T17:37:41.810Z,0.80
2019-05-29T17:40:46.186Z,0.90
2019-05-29T17:43:50.478Z,0.70
2019-05-29T17:46:54.774Z,0.80
2019-05-29T17:49:59.196Z,0.80
2019-05-29T17:53:03.542Z,1.00
2019-05-29T17:56:07.826Z,0.70
2019-05-29T17:59:12.211Z,0.77
2019-05-29T18:02:16.474Z,0.77
2019-05-29T18:05:22.673Z,0.97
2019-05-29T18:08:27.064Z,0.80
2019-05-29T18:11:31.337Z,0.90
2019-05-29T18:14:37.434Z,0.60
2019-05-29T18:17:44.253Z,0.80
2019-05-29T18:20:47.852Z,0.70
2019-05-29T18:23:53.815Z,0.83
2019-05-29T18:26:59.207Z,0.80
2019-05-29T18:30:03.714Z,0.80
2019-05-29T18:33:08.002Z,0.80
2019-05-29T18:36:12.299Z,0.60
2019-05-29T18:39:16.590Z,0.60
2019-05-29T18:42:22.545Z,1.00
2019-05-29T18:45:27.875Z,1.50
2019-05-29T18:48:33.205Z,1.37
2019-05-29T18:51:37.526Z,1.00
2019-05-29T18:54:42.141Z,1.33
2019-05-29T18:57:46.417Z,1.27
2019-05-29T19:00:50.829Z,0.80
2019-05-29T19:03:55.125Z,1.00
2019-05-29T19:06:59.417Z,0.87
2019-05-29T19:10:06.749Z,0.90
2019-05-29T19:13:10.621Z,1.23
2019-05-29T19:16:16.049Z,1.00
2019-05-29T19:19:21.919Z,2.60
2019-05-29T19:22:26.483Z,1.40
2019-05-29T19:25:30.952Z,1.23
2019-05-29T19:28:35.265Z,1.30
2019-05-29T19:31:42.504Z,1.43
2019-05-29T19:34:45.591Z,1.33
2019-05-29T19:37:50.001Z,1.20
2019-05-29T19:40:54.293Z,1.00
2019-05-29T19:43:58.672Z,1.07
2019-05-29T19:47:02.973Z,1.10
2019-05-29T19:50:11.171Z,1.20
2019-05-29T19:53:14.358Z,0.80
2019-05-29T19:56:18.695Z,1.33
2019-05-29T19:59:22.989Z,0.90
2019-05-29T20:02:28.393Z,1.00
2019-05-29T20:05:32.890Z,1.37
2019-05-29T20:08:39.416Z,0.90
2019-05-29T20:11:43.476Z,1.20
2019-05-29T20:14:47.826Z,0.97
2019-05-29T20:17:53.274Z,0.90
2019-05-29T20:20:57.660Z,1.90
2019-05-29T20:24:02.075Z,2.23
2019-05-29T20:27:06.473Z,1.70
2019-05-29T20:30:16.960Z,1.03
2019-05-29T20:33:21.278Z,2.17
2019-05-29T20:36:25.561Z,1.47
2019-05-29T20:39:30.222Z,1.53
2019-05-29T20:42:34.675Z,1.80
2019-05-29T20:45:39.736Z,1.80
2019-05-29T20:48:45.916Z,1.67
2019-05-29T20:51:50.313Z,2.10
2019-05-29T20:54:58.324Z,1.93
2019-05-29T20:58:01.195Z,1.70
2019-05-29T21:01:05.682Z,1.63
2019-05-29T21:04:10.031Z,2.43
2019-05-29T21:07:14.386Z,2.30
2019-05-29T21:10:18.877Z,1.40
2019-05-29T21:13:23.391Z,1.47
2019-05-29T21:16:27.841Z,1.53
2019-05-29T21:19:32.278Z,1.87
2019-05-29T21:22:36.820Z,1.70
2019-05-29T21:25:41.170Z,1.57
2019-05-29T21:28:50.470Z,1.93
2019-05-29T21:31:53.723Z,1.40
2019-05-29T21:34:58.068Z,1.30
2019-05-29T21:38:02.514Z,1.30
2019-05-29T21:41:06.849Z,1.20
2019-05-29T21:44:11.345Z,0.93
2019-05-29T21:47:18.917Z,1.10
2019-05-29T21:50:23.245Z,1.10
2019-05-29T21:53:27.986Z,1.10
2019-05-29T21:56:32.428Z,1.33
2019-05-29T21:59:37.656Z,1.20
2019-05-29T22:02:42.394Z,1.00
2019-05-29T22:05:49.481Z,1.20
2019-05-29T22:08:54.537Z,1.53
2019-05-29T22:11:59.078Z,1.50
2019-05-29T22:15:04.153Z,1.17
2019-05-29T22:18:08.792Z,1.60
2019-05-29T22:21:13.147Z,1.43
2019-05-29T22:24:17.480Z,1.20
2019-05-29T22:27:21.932Z,1.40
2019-05-29T22:30:26.472Z,1.00
2019-05-29T22:33:30.887Z,1.00
2019-05-29T22:36:35.317Z,1.20
2019-05-29T22:39:39.710Z,1.27
2019-05-29T22:42:45.987Z,1.20
2019-05-29T22:45:51.505Z,1.20
2019-05-29T22:48:56.078Z,1.00
2019-05-29T22:52:00.420Z,1.10
2019-05-29T22:55:05.499Z,1.03
2019-05-29T22:58:10.016Z,1.20
2019-05-29T23:01:14.558Z,1.20
2019-05-29T23:04:18.954Z,1.17
2019-05-29T23:07:23.285Z,1.27
2019-05-29T23:10:27.816Z,1.20
2019-05-29T23:13:32.128Z,1.33
2019-05-29T23:16:36.507Z,1.37
2019-05-29T23:19:40.857Z,1.30
2019-05-29T23:22:45.225Z,1.40
2019-05-29T23:25:49.687Z,1.40
2019-05-29T23:28:54.734Z,1.43
2019-05-29T23:31:59.198Z,1.33
2019-05-29T23:35:03.568Z,1.30
2019-05-29T23:38:07.918Z,1.13
2019-05-29T23:41:12.283Z,1.10
2019-05-29T23:44:16.825Z,1.10
2019-05-29T23:47:21.231Z,1.20
2019-05-29T23:50:25.549Z,1.60
2019-05-29T23:53:29.845Z,1.10
2019-05-29T23:56:34.123Z,1.47
2019-05-29T23:59:38.565Z,1.30
